Announcements
NOTE: You can customize the way the weather site looks by clicking the "Customize" button on the menu, make your selection, and then "Save Your Changes"
from: Jan 19 2019 12:00 pm until: Jan 20 2019 6:00 pm Winter Storm Warning level: Moderate
Possible threat to life or property - Responsive action SHOULD be taken soon (within next hour)


Weather Cam 1 more information Weather Cam 1


Weather Cam 2 more information Weather Cam 2


Visit our other weather sites:

Template documentation
and downloads

And another site


Nearby METAR Reports

   
KMMU - Bloomingdale, New Jersey 07403
Updated: Jan 18 2019 3:45 pm
Mist, Overcast  
Mist, Overcast  
   Wind: West 8.1 mph
Wind: West 8.1 mph
Temperature: 35.6°F
Wind Chill: 28.4°F
Dew Point: 33.8°F
Humidity: 93%
Barometer: 30.08 inHg
Clouds: Overcast
Visibility: 5 mi
Cloud details: Overcast 305 m
KMMU 182045Z 26007KT 5SM BR OVC010 02/01 A3008
KTEB - Clifton, New Jersey 07014
Updated: Jan 18 2019 3:51 pm
Overcast  
Overcast  
   Wind: SW 8.1 mph<br />Gust to 8.1 mph
Wind: SW 8.1 mph
Gust to 8.1 mph
Temperature: 41°F
Wind Chill: 35.6°F
Dew Point: 33.8°F
Humidity: 76%
Barometer: 30.06 inHg
Clouds: Overcast
Visibility: 7 mi
Cloud details: Overcast 549 m
KTEB 182051Z 22007G15KT 160V260 7SM OVC018 05/01 A3006 RMK AO2 SLP180 T00500006 53001
KFWN - Franklin, New Jersey 07416
Updated: Jan 18 2019 3:53 pm
Overcast  
Overcast  
   Wind: SSW 6.9 mph
Wind: SSW 6.9 mph
Temperature: 33.8°F
Wind Chill: 28.4°F
Dew Point: 30.2°F
Humidity: 87%
Barometer: 30.05 inHg
Clouds: Overcast
Visibility: 10 mi
Cloud details: Few Clouds 335 m,
Overcast 762 m
KFWN 182053Z AUTO 21006KT 10SM FEW011 OVC025 01/M01 A3005 RMK AO2 SLP180 60000 T00061011 53010
KFWN - Hamburg, New Jersey 07419
Updated: Jan 18 2019 3:53 pm
Overcast  
Overcast  
   Wind: SSW 6.9 mph
Wind: SSW 6.9 mph
Temperature: 33.8°F
Wind Chill: 28.4°F
Dew Point: 30.2°F
Humidity: 87%
Barometer: 30.05 inHg
Clouds: Overcast
Visibility: 10 mi
Cloud details: Few Clouds 335 m,
Overcast 762 m
KFWN 182053Z AUTO 21006KT 10SM FEW011 OVC025 01/M01 A3005 RMK AO2 SLP180 60000 T00061011 53010
KFWN - Highland Lakes, New Jersey 07422
Updated: Jan 18 2019 3:53 pm
Overcast  
Overcast  
   Wind: SSW 6.9 mph
Wind: SSW 6.9 mph
Temperature: 33.8°F
Wind Chill: 28.4°F
Dew Point: 30.2°F
Humidity: 87%
Barometer: 30.05 inHg
Clouds: Overcast
Visibility: 10 mi
Cloud details: Few Clouds 335 m,
Overcast 762 m
KFWN 182053Z AUTO 21006KT 10SM FEW011 OVC025 01/M01 A3005 RMK AO2 SLP180 60000 T00061011 53010
KMMU - Hopatcong,New Jersey 07849
Updated: Jan 18 2019 3:45 pm
Mist, Overcast  
Mist, Overcast  
   Wind: West 8.1 mph
Wind: West 8.1 mph
Temperature: 35.6°F
Wind Chill: 28.4°F
Dew Point: 33.8°F
Humidity: 93%
Barometer: 30.08 inHg
Clouds: Overcast
Visibility: 5 mi
Cloud details: Overcast 305 m
KMMU 182045Z 26007KT 5SM BR OVC010 02/01 A3008
KFWN - Jefferson, New Jersey 07438
Updated: Jan 18 2019 3:53 pm
Overcast  
Overcast  
   Wind: SSW 6.9 mph
Wind: SSW 6.9 mph
Temperature: 33.8°F
Wind Chill: 28.4°F
Dew Point: 30.2°F
Humidity: 87%
Barometer: 30.05 inHg
Clouds: Overcast
Visibility: 10 mi
Cloud details: Few Clouds 335 m,
Overcast 762 m
KFWN 182053Z AUTO 21006KT 10SM FEW011 OVC025 01/M01 A3005 RMK AO2 SLP180 60000 T00061011 53010
KLDJ - Keansburg, New Jersey 07734
Updated: Jan 18 2019 4:35 pm
Overcast  
Overcast  
   Wind: WNW 9.2 mph
Wind: WNW 9.2 mph
Temperature: 37.4°F
Wind Chill: 30.2°F
Dew Point: 32°F
Humidity: 81%
Barometer: 30.08 inHg
Clouds: Overcast
Visibility: 10 mi
Cloud details: Overcast 396 m
KLDJ 182135Z AUTO 30008KT 10SM OVC013 03/00 A3008 RMK AO2 T00250000
KMJX - Lavallette, New Jersey 08735
Updated: Jan 18 2019 3:56 pm
Overcast  
Overcast  
   Wind: WNW 6.9 mph
Wind: WNW 6.9 mph
Temperature: 37.4°F
Wind Chill: 32°F
Dew Point: 35.6°F
Humidity: 93%
Barometer: 30.09 inHg
Clouds: Overcast
Visibility: 8 mi
Cloud details: Overcast 244 m
KMJX 182056Z AUTO 29006KT 8SM OVC008 03/02 A3009 RMK AO2 RAB18E28 CIG 005V011 SLP197 P0000 60000 T00330022 53004
KTEB - Little Ferry, New Jersey 07643
Updated: Jan 18 2019 3:51 pm
Overcast  
Overcast  
   Wind: SW 8.1 mph<br />Gust to 8.1 mph
Wind: SW 8.1 mph
Gust to 8.1 mph
Temperature: 41°F
Wind Chill: 35.6°F
Dew Point: 33.8°F
Humidity: 76%
Barometer: 30.06 inHg
Clouds: Overcast
Visibility: 7 mi
Cloud details: Overcast 549 m
KTEB 182051Z 22007G15KT 160V260 7SM OVC018 05/01 A3006 RMK AO2 SLP180 T00500006 53001
KTEB - Spring Valley, NY 10977
Updated: Jan 18 2019 3:51 pm
Overcast  
Overcast  
   Wind: SW 8.1 mph<br />Gust to 8.1 mph
Wind: SW 8.1 mph
Gust to 8.1 mph
Temperature: 41°F
Wind Chill: 35.6°F
Dew Point: 33.8°F
Humidity: 76%
Barometer: 30.06 inHg
Clouds: Overcast
Visibility: 7 mi
Cloud details: Overcast 549 m
KTEB 182051Z 22007G15KT 160V260 7SM OVC018 05/01 A3006 RMK AO2 SLP180 T00500006 53001
KEWR - Newark, New Jersey 07104
Updated: Jan 18 2019 3:51 pm
Overcast  
Overcast  
   Wind: WSW 10.4 mph
Wind: WSW 10.4 mph
Temperature: 37.4°F
Wind Chill: 30.2°F
Dew Point: 32°F
Humidity: 81%
Barometer: 30.07 inHg
Clouds: Overcast
Visibility: 8 mi
Cloud details: Few Clouds 335 m,
Mostly Cloudy 488 m,
Overcast 1067 m
KEWR 182051Z 25009KT 8SM FEW011 BKN016 OVC035 03/00 A3007 RMK AO2 SLP183 T00330000 53002
KMMU - Newfoundland, New Jersey 07435
Updated: Jan 18 2019 3:45 pm
Mist, Overcast  
Mist, Overcast  
   Wind: West 8.1 mph
Wind: West 8.1 mph
Temperature: 35.6°F
Wind Chill: 28.4°F
Dew Point: 33.8°F
Humidity: 93%
Barometer: 30.08 inHg
Clouds: Overcast
Visibility: 5 mi
Cloud details: Overcast 305 m
KMMU 182045Z 26007KT 5SM BR OVC010 02/01 A3008
KLGA - Yonkers, New York 10710
Updated: Jan 18 2019 3:51 pm
Overcast  
Overcast  
   Wind: varies 3.5 mph
Wind: varies 3.5 mph
Temperature: 39.2°F
Wind Chill: 37.4°F
Dew Point: 32°F
Humidity: 75%
Barometer: 30.07 inHg
Clouds: Overcast
Visibility: 8 mi
Cloud details: Overcast 610 m
KLGA 182051Z VRB03KT 8SM OVC020 04/00 A3007 RMK AO2 SLP180 T00440000 53007
 

Script developed by  Saratoga-weather.org Adapted for the template by  Weerstation Leuven

You find our weather info also at:

Weather Underground

Citizen Weather Observer Program (CWOP)

Equipment we use:

Weather-station
Davis Vantage Pro2

Weather-program
WeatherLink

Weather-server
DELL Optiplex 7020 Mini-Tower

Provider
Deluxe

Davis Vantage Pro2

WeatherLink

DELL Optiplex 7020 Mini-Tower

Deluxe

Weather Station EW0157 Visitors
Weather Station EW0157 Visitors